Time;durP1;ratioP1;P1;durP2;ratioP2;P2;SDS_P1;SDS_P2;PMS_P1;PMS_P2;Temp;Humidity;BMP_temperature;BMP_pressure;BME280_temperature;BME280_humidity;BME280_pressure;Samples;Min_cycle;Max_cycle;Signal;HPM_P1;HPM_P2
2024/04/10 00:02:23;;;;;;;;;;;;;;;31.61;22.02;97843.06;5506777;26;19932;-84
2024/04/10 00:04:51;;;;;;;;;;;;;;;31.32;23.06;97833.25;5478084;26;19951;-84
2024/04/10 00:07:17;;;;;;;;;;;;;;;31.16;23.55;97836.59;5514705;26;19935;-84
2024/04/10 00:09:43;;;;;;;;;;;;;;;31.10;22.74;97834.94;5515747;26;19931;-84
2024/04/10 00:12:09;;;;;;;;;;;;;;;31.15;22.39;97835.03;5503709;26;20248;-84
2024/04/10 00:14:38;;;;;;;;;;;;;;;31.30;22.16;97829.34;5513896;26;19997;-83
2024/04/10 00:17:05;;;;;;;;;;;;;;;31.35;22.11;97831.50;5511459;26;20467;-83
2024/04/10 00:19:31;;;;;;;;;;;;;;;31.23;22.50;97829.72;5513268;26;19927;-84
2024/04/10 00:21:57;;;;;;;;;;;;;;;31.20;23.28;97834.34;5509553;26;20378;-83
2024/04/10 00:24:23;;;;;;;;;;;;;;;31.25;23.16;97844.25;5514585;26;19928;-84
2024/04/10 00:26:49;;;;;;;;;;;;;;;31.23;22.59;97833.34;5508450;26;19935;-84
2024/04/10 00:29:15;;;;;;;;;;;;;;;31.22;22.43;97837.50;5516088;26;19941;-83
2024/04/10 00:31:42;;;;;;;;;;;;;;;31.12;22.97;97840.88;5507963;26;20296;-83
2024/04/10 00:34:08;;;;;;;;;;;;;;;30.92;23.26;97849.28;5501835;26;20021;-83
2024/04/10 00:36:34;;;;;;;;;;;;;;;30.94;22.67;97844.69;5502613;26;19928;-83
2024/04/10 00:39:00;;;;;;;;;;;;;;;30.89;22.97;97838.91;5515058;26;19928;-83
2024/04/10 00:41:26;;;;;;;;;;;;;;;30.81;23.74;97835.63;5509104;25;20274;-83
2024/04/10 00:43:52;;;;;;;;;;;;;;;30.80;23.03;97834.09;5510434;26;19928;-83
2024/04/10 00:46:20;;;;;;;;;;;;;;;30.92;22.60;97835.91;5503924;26;19934;-83
2024/04/10 00:48:48;;;;;;;;;;;;;;;31.08;22.56;97834.63;5503555;26;19935;-83
2024/04/10 00:51:21;;;;;;;;;;;;;;;31.07;23.24;97835.88;5517866;26;19932;-83
2024/04/10 00:53:48;;;;;;;;;;;;;;;31.05;23.49;97850.56;5498925;26;19976;-83
2024/04/10 00:56:14;;;;;;;;;;;;;;;30.99;23.51;97848.91;5513025;26;19963;-83
2024/04/10 00:58:41;;;;;;;;;;;;;;;31.08;22.58;97851.66;5495410;26;19954;-83
2024/04/10 01:01:08;;;;;;;;;;;;;;;31.08;22.89;97855.28;5503753;26;19927;-83
2024/04/10 01:03:35;;;;;;;;;;;;;;;31.26;22.82;97868.47;5518001;26;19996;-83
2024/04/10 01:06:02;;;;;;;;;;;;;;;30.29;23.56;97888.13;5507455;26;19936;-84
2024/04/10 01:08:28;;;;;;;;;;;;;;;30.48;23.84;97883.16;5514562;26;19939;-83
2024/04/10 01:10:55;;;;;;;;;;;;;;;30.91;23.29;97874.03;5509070;25;19939;-83
2024/04/10 01:13:21;;;;;;;;;;;;;;;31.11;23.30;97879.81;5518759;26;19935;-83
2024/04/10 01:15:47;;;;;;;;;;;;;;;30.69;24.21;97879.97;5505458;26;19927;-84
2024/04/10 01:18:13;;;;;;;;;;;;;;;29.86;24.69;97886.59;5513989;26;19935;-83
2024/04/10 01:20:39;;;;;;;;;;;;;;;30.00;24.65;97885.91;5514782;26;19938;-83
2024/04/10 01:23:05;;;;;;;;;;;;;;;30.25;24.63;97884.66;5513271;26;19951;-83
2024/04/10 01:25:31;;;;;;;;;;;;;;;30.46;23.88;97885.66;5520631;26;20271;-83
2024/04/10 01:27:58;;;;;;;;;;;;;;;30.26;24.50;97897.56;5511601;26;19933;-83
2024/04/10 01:30:24;;;;;;;;;;;;;;;30.19;24.73;97892.25;5510123;26;19947;-83
2024/04/10 01:32:50;;;;;;;;;;;;;;;30.26;24.25;97899.63;5514934;26;20266;-83
2024/04/10 01:35:16;;;;;;;;;;;;;;;30.25;24.33;97898.81;5509000;26;20532;-83
2024/04/10 01:37:43;;;;;;;;;;;;;;;30.39;24.05;97903.81;5513585;26;19964;-84
2024/04/10 01:40:09;;;;;;;;;;;;;;;30.68;24.10;97908.81;5507869;26;19967;-83
2024/04/10 01:42:35;;;;;;;;;;;;;;;30.68;23.67;97912.44;5515713;26;19928;-83
2024/04/10 01:45:03;;;;;;;;;;;;;;;30.50;24.06;97914.63;5511937;26;19928;-84
2024/04/10 01:47:29;;;;;;;;;;;;;;;30.53;24.24;97920.09;5515404;26;20214;-83
2024/04/10 01:49:55;;;;;;;;;;;;;;;30.66;24.12;97919.88;5516983;26;20113;-84
2024/04/10 01:52:21;;;;;;;;;;;;;;;30.83;23.91;97926.66;5480202;26;19939;-84
2024/04/10 01:54:48;;;;;;;;;;;;;;;30.61;24.54;97934.69;5512755;26;19934;-84
2024/04/10 01:57:14;;;;;;;;;;;;;;;30.64;24.16;97937.34;5517944;26;19928;-84
2024/04/10 01:59:41;;;;;;;;;;;;;;;30.70;23.70;97937.47;5476918;26;19927;-84
2024/04/10 02:02:07;;;;;;;;;;;;;;;30.58;24.12;97944.94;5518084;26;19935;-84
2024/04/10 02:04:34;;;;;;;;;;;;;;;30.52;24.08;97935.56;5514222;26;19995;-84
2024/04/10 02:07:00;;;;;;;;;;;;;;;30.41;24.57;97948.69;5512173;26;19927;-84
2024/04/10 02:09:26;;;;;;;;;;;;;;;30.35;24.57;97951.38;5518858;26;19938;-84
2024/04/10 02:11:52;;;;;;;;;;;;;;;30.33;24.35;97959.56;5509758;26;19935;-84
2024/04/10 02:14:18;;;;;;;;;;;;;;;30.33;24.40;97968.06;5503924;26;19934;-84
2024/04/10 02:16:46;;;;;;;;;;;;;;;30.32;24.62;97962.84;5521725;26;20041;-84
2024/04/10 02:19:12;;;;;;;;;;;;;;;30.19;24.83;97962.28;5507285;26;19996;-84
2024/04/10 02:21:38;;;;;;;;;;;;;;;30.18;24.80;97969.22;5518906;26;20255;-83
2024/04/10 02:24:06;;;;;;;;;;;;;;;30.24;24.88;97970.13;5514537;26;19994;-83
2024/04/10 02:26:33;;;;;;;;;;;;;;;30.09;24.93;97975.69;5509007;26;19955;-83
2024/04/10 02:28:59;;;;;;;;;;;;;;;30.11;25.11;97972.41;5517738;26;19939;-84
2024/04/10 02:31:25;;;;;;;;;;;;;;;30.01;24.98;97985.81;5520106;26;19935;-84
2024/04/10 02:33:52;;;;;;;;;;;;;;;30.06;25.41;97988.75;5518198;26;20324;-84
2024/04/10 02:36:18;;;;;;;;;;;;;;;30.06;25.05;97994.41;5506095;26;19927;-83
2024/04/10 02:38:45;;;;;;;;;;;;;;;30.15;24.91;97998.50;5510293;26;19931;-83
2024/04/10 02:41:11;;;;;;;;;;;;;;;30.38;24.92;97992.13;5510590;26;20419;-84
2024/04/10 02:43:37;;;;;;;;;;;;;;;30.64;24.43;98004.59;5509566;26;19935;-84
2024/04/10 02:46:05;;;;;;;;;;;;;;;30.85;24.19;97994.22;5519102;26;20375;-84
2024/04/10 02:48:31;;;;;;;;;;;;;;;30.78;24.57;98006.72;5488889;26;19932;-84
2024/04/10 02:50:58;;;;;;;;;;;;;;;30.83;24.19;98010.94;5512737;26;20379;-84
2024/04/10 02:53:24;;;;;;;;;;;;;;;31.09;24.31;98020.53;5520096;26;19956;-84
2024/04/10 02:55:50;;;;;;;;;;;;;;;31.19;23.95;98017.16;5518998;26;19931;-83
2024/04/10 02:58:17;;;;;;;;;;;;;;;31.21;24.05;98028.03;5520882;26;19936;-83
2024/04/10 03:00:43;;;;;;;;;;;;;;;31.10;23.99;98033.47;5517625;26;20016;-84
2024/04/10 03:03:10;;;;;;;;;;;;;;;30.91;24.56;98037.69;5503668;26;19928;-84
2024/04/10 03:05:36;;;;;;;;;;;;;;;30.42;25.36;98036.03;5513017;26;19928;-84
2024/04/10 03:08:02;;;;;;;;;;;;;;;30.32;25.74;98050.66;5476948;26;19936;-84
2024/04/10 03:10:28;;;;;;;;;;;;;;;30.48;25.14;98044.66;5510665;26;19928;-84
2024/04/10 03:12:54;;;;;;;;;;;;;;;30.46;25.83;98056.47;5512350;26;20382;-84
2024/04/10 03:15:20;;;;;;;;;;;;;;;30.34;25.59;98077.28;5511070;26;19927;-84
2024/04/10 03:17:46;;;;;;;;;;;;;;;30.51;25.53;98074.88;5513233;26;19935;-84
2024/04/10 03:20:13;;;;;;;;;;;;;;;30.66;25.55;98081.44;5505121;26;20292;-83
2024/04/10 03:22:39;;;;;;;;;;;;;;;30.81;25.65;98070.19;5510044;26;19935;-84
2024/04/10 03:25:06;;;;;;;;;;;;;;;30.74;25.88;98074.91;5520622;26;20299;-84
2024/04/10 03:27:32;;;;;;;;;;;;;;;30.70;25.39;98090.53;5510255;26;19943;-83
2024/04/10 03:29:58;;;;;;;;;;;;;;;30.68;25.35;98101.56;5509747;26;19934;-83
2024/04/10 03:32:27;;;;;;;;;;;;;;;30.88;25.31;98089.69;5508051;26;20364;-83
2024/04/10 03:34:53;;;;;;;;;;;;;;;30.68;26.06;98098.75;5514606;26;20244;-83
2024/04/10 03:37:19;;;;;;;;;;;;;;;30.62;26.30;98092.91;5507889;26;19935;-84
2024/04/10 03:39:45;;;;;;;;;;;;;;;30.53;26.42;98109.97;5508697;26;19935;-83
2024/04/10 03:42:12;;;;;;;;;;;;;;;30.68;26.38;98115.75;5515921;26;19995;-83
2024/04/10 03:44:38;;;;;;;;;;;;;;;30.92;25.98;98115.84;5513999;26;19927;-83
2024/04/10 03:47:04;;;;;;;;;;;;;;;30.96;26.27;98117.22;5507886;26;20321;-83
2024/04/10 03:49:30;;;;;;;;;;;;;;;31.13;25.85;98121.25;5503900;26;19931;-84
2024/04/10 03:51:56;;;;;;;;;;;;;;;31.26;26.05;98133.13;5503368;26;20025;-83
2024/04/10 03:54:22;;;;;;;;;;;;;;;31.47;25.77;98136.16;5516916;26;19927;-83
2024/04/10 03:56:48;;;;;;;;;;;;;;;31.38;25.30;98137.00;5509427;26;19942;-83
2024/04/10 03:59:14;;;;;;;;;;;;;;;31.16;25.80;98134.44;5517658;26;19928;-84
2024/04/10 04:01:41;;;;;;;;;;;;;;;31.17;25.29;98150.22;5502982;26;20379;-83
2024/04/10 04:04:07;;;;;;;;;;;;;;;30.86;25.90;98163.88;5515907;26;19954;-83
2024/04/10 04:06:33;;;;;;;;;;;;;;;30.75;26.26;98166.44;5504452;26;19931;-84
2024/04/10 04:08:59;;;;;;;;;;;;;;;30.92;26.42;98167.66;5521411;26;20003;-83
2024/04/10 04:11:25;;;;;;;;;;;;;;;31.06;26.41;98178.31;5478847;26;19927;-83
2024/04/10 04:13:51;;;;;;;;;;;;;;;30.82;26.91;98177.44;5507218;26;20266;-84
2024/04/10 04:16:18;;;;;;;;;;;;;;;31.03;27.66;98179.28;5503470;26;19936;-83
2024/04/10 04:18:44;;;;;;;;;;;;;;;31.21;27.33;98186.91;5501384;26;20367;-84
2024/04/10 04:21:10;;;;;;;;;;;;;;;31.20;28.01;98183.28;5512837;26;19943;-84
2024/04/10 04:23:36;;;;;;;;;;;;;;;30.57;29.00;98177.84;5507948;26;19934;-84
2024/04/10 04:26:03;;;;;;;;;;;;;;;30.52;29.33;98189.81;5502577;26;19946;-84
2024/04/10 04:28:29;;;;;;;;;;;;;;;30.79;28.97;98186.88;5505059;26;19927;-84
2024/04/10 04:30:55;;;;;;;;;;;;;;;31.02;28.64;98197.53;5514496;26;19983;-84
2024/04/10 04:33:21;;;;;;;;;;;;;;;31.10;28.50;98198.00;5518549;26;20252;-84
2024/04/10 04:35:47;;;;;;;;;;;;;;;31.08;28.76;98198.47;5509838;26;20300;-83
2024/04/10 04:38:14;;;;;;;;;;;;;;;31.38;28.22;98203.06;5493224;26;19927;-84
2024/04/10 04:40:40;;;;;;;;;;;;;;;31.39;28.29;98204.59;5498500;26;19983;-83
2024/04/10 04:43:09;;;;;;;;;;;;;;;31.19;28.40;98214.97;5506061;25;19940;-83
2024/04/10 04:45:36;;;;;;;;;;;;;;;31.24;28.65;98226.47;5519957;26;20363;-84
2024/04/10 04:48:03;;;;;;;;;;;;;;;31.64;28.09;98237.47;5510000;26;19992;-84
2024/04/10 04:50:29;;;;;;;;;;;;;;;32.17;27.70;98234.75;5505922;26;20332;-83
2024/04/10 04:52:55;;;;;;;;;;;;;;;32.03;27.55;98235.50;5513819;26;19951;-83
2024/04/10 04:55:21;;;;;;;;;;;;;;;32.05;27.80;98238.63;5509864;26;19962;-83
2024/04/10 04:57:47;;;;;;;;;;;;;;;31.45;28.40;98238.84;5519619;26;19935;-84
2024/04/10 05:00:19;;;;;;;;;;;;;;;31.49;28.55;98247.94;5521295;26;19927;-84
2024/04/10 05:02:46;;;;;;;;;;;;;;;31.16;29.07;98255.63;5518893;26;20275;-83
2024/04/10 05:05:16;;;;;;;;;;;;;;;31.11;29.25;98251.41;5501612;26;19932;-84
2024/04/10 05:07:43;;;;;;;;;;;;;;;30.34;30.61;98252.94;5515277;26;20363;-83
2024/04/10 05:10:12;;;;;;;;;;;;;;;30.76;30.29;98258.72;5511370;26;19934;-83
2024/04/10 05:12:40;;;;;;;;;;;;;;;30.98;30.08;98267.84;5511133;26;19935;-84
2024/04/10 05:15:07;;;;;;;;;;;;;;;31.00;29.96;98275.84;5507010;26;19939;-84
2024/04/10 05:17:34;;;;;;;;;;;;;;;30.91;30.22;98279.50;5510307;26;19938;-84
2024/04/10 05:20:00;;;;;;;;;;;;;;;30.71;30.44;98277.16;5509439;26;19934;-84
2024/04/10 05:22:26;;;;;;;;;;;;;;;30.83;30.53;98281.06;5494200;26;19928;-83
2024/04/10 05:24:52;;;;;;;;;;;;;;;31.26;29.91;98285.56;5507353;26;19931;-84
2024/04/10 05:27:25;;;;;;;;;;;;;;;30.96;30.06;98289.44;5517489;26;19927;-83
2024/04/10 05:30:01;;;;;;;;;;;;;;;30.42;30.97;98285.38;5516750;26;20236;-83
2024/04/10 05:32:27;;;;;;;;;;;;;;;30.69;31.00;98299.50;5497834;26;19935;-83
2024/04/10 05:34:54;;;;;;;;;;;;;;;30.90;30.43;98292.09;5510278;26;19931;-84
2024/04/10 05:37:21;;;;;;;;;;;;;;;31.63;29.47;98294.72;5481493;26;20390;-83
2024/04/10 05:40:00;;;;;;;;;;;;;;;31.37;29.75;98305.69;5511964;26;19935;-82
2024/04/10 05:42:26;;;;;;;;;;;;;;;30.50;31.10;98303.63;5520620;26;19956;-82
2024/04/10 05:44:52;;;;;;;;;;;;;;;30.92;30.29;98317.16;5516526;26;19942;-82
2024/04/10 05:47:18;;;;;;;;;;;;;;;29.50;33.09;98330.13;5506902;26;19928;-82
2024/04/10 05:49:44;;;;;;;;;;;;;;;29.63;32.66;98320.28;5487017;26;20255;-83
2024/04/10 05:52:10;;;;;;;;;;;;;;;30.24;31.51;98325.00;5503008;26;19952;-83
2024/04/10 05:54:36;;;;;;;;;;;;;;;31.11;30.32;98336.50;5506679;26;20337;-83
2024/04/10 05:57:02;;;;;;;;;;;;;;;31.26;30.19;98336.63;5519378;26;19949;-83
2024/04/10 05:59:28;;;;;;;;;;;;;;;31.39;30.33;98342.91;5504165;26;19927;-83
2024/04/10 06:01:54;;;;;;;;;;;;;;;30.79;31.16;98348.50;5524955;26;19934;-83
2024/04/10 06:04:21;;;;;;;;;;;;;;;30.52;31.34;98346.47;5523778;26;19927;-83
2024/04/10 06:06:47;;;;;;;;;;;;;;;30.65;31.08;98346.28;5527685;26;19928;-83
2024/04/10 06:09:13;;;;;;;;;;;;;;;29.22;32.84;98344.13;5527099;26;19928;-83
2024/04/10 06:11:39;;;;;;;;;;;;;;;29.36;32.58;98366.19;5517948;26;20317;-83
2024/04/10 06:14:05;;;;;;;;;;;;;;;29.42;32.65;98377.72;5491259;26;19939;-83
2024/04/10 06:16:31;;;;;;;;;;;;;;;28.93;33.02;98374.69;5492445;26;19927;-83
2024/04/10 06:18:57;;;;;;;;;;;;;;;28.60;33.31;98379.13;5500917;26;19928;-84
2024/04/10 06:21:23;;;;;;;;;;;;;;;28.50;33.83;98381.06;5527184;26;19934;-83
2024/04/10 06:23:49;;;;;;;;;;;;;;;28.62;33.64;98380.25;5526700;26;20366;-84
2024/04/10 06:26:16;;;;;;;;;;;;;;;28.71;33.75;98385.19;5526636;26;19935;-84
2024/04/10 06:28:42;;;;;;;;;;;;;;;29.03;32.55;98390.50;5508409;26;20333;-83
2024/04/10 06:31:09;;;;;;;;;;;;;;;29.17;32.82;98398.41;5497770;26;19928;-83
2024/04/10 06:33:35;;;;;;;;;;;;;;;28.97;33.10;98405.66;5522618;26;19927;-84
2024/04/10 06:36:04;;;;;;;;;;;;;;;28.98;33.50;98413.69;5528145;26;19934;-84
2024/04/10 06:38:34;;;;;;;;;;;;;;;29.25;32.90;98418.78;5528118;26;20374;-83
2024/04/10 06:41:01;;;;;;;;;;;;;;;28.63;34.46;98420.63;5527543;26;19976;-83
2024/04/10 06:43:27;;;;;;;;;;;;;;;28.77;34.88;98422.94;5527514;26;19976;-83
2024/04/10 06:45:56;;;;;;;;;;;;;;;29.39;33.29;98433.19;5514396;26;19928;-83
2024/04/10 06:48:22;;;;;;;;;;;;;;;29.39;33.14;98438.84;5527347;26;19935;-83
2024/04/10 06:50:48;;;;;;;;;;;;;;;29.68;32.72;98443.41;5527394;26;19927;-83
2024/04/10 06:53:15;;;;;;;;;;;;;;;29.20;33.23;98450.47;5527388;26;19934;-83
2024/04/10 06:55:41;;;;;;;;;;;;;;;28.49;34.48;98458.59;5495567;26;19927;-83
2024/04/10 06:58:07;;;;;;;;;;;;;;;28.46;34.80;98465.16;5527974;26;19935;-83
2024/04/10 07:00:33;;;;;;;;;;;;;;;29.11;34.12;98467.34;5526988;26;19935;-83
2024/04/10 07:02:59;;;;;;;;;;;;;;;28.86;34.11;98470.28;5525680;26;19939;-83
2024/04/10 07:05:25;;;;;;;;;;;;;;;29.18;33.94;98473.56;5525877;26;19928;-83
2024/04/10 07:07:51;;;;;;;;;;;;;;;29.21;33.69;98483.97;5526917;26;19955;-84
2024/04/10 07:10:17;;;;;;;;;;;;;;;28.91;34.44;98481.81;5527643;26;19939;-84
2024/04/10 07:12:43;;;;;;;;;;;;;;;27.98;35.84;98500.16;5527348;26;19927;-83
2024/04/10 07:15:13;;;;;;;;;;;;;;;27.49;36.60;98500.88;5527731;26;19935;-83
2024/04/10 07:17:39;;;;;;;;;;;;;;;27.63;36.56;98514.56;5458237;26;19928;-84
2024/04/10 07:20:06;;;;;;;;;;;;;;;27.06;37.14;98521.78;5491875;26;20283;-83
2024/04/10 07:22:32;;;;;;;;;;;;;;;26.91;36.85;98522.63;5516099;26;19960;-83
2024/04/10 07:24:58;;;;;;;;;;;;;;;26.77;35.66;98511.72;5517019;26;19942;-84
2024/04/10 07:27:24;;;;;;;;;;;;;;;26.38;36.87;98529.53;5527803;26;19927;-83
2024/04/10 07:29:56;;;;;;;;;;;;;;;26.45;37.30;98540.63;5527566;26;20350;-83
2024/04/10 07:32:25;;;;;;;;;;;;;;;26.44;36.69;98539.84;5521543;26;19946;-83
2024/04/10 07:34:51;;;;;;;;;;;;;;;25.87;37.32;98539.53;5459365;26;19940;-83
2024/04/10 07:37:17;;;;;;;;;;;;;;;25.56;37.89;98544.63;5459486;26;19936;-83
2024/04/10 07:39:44;;;;;;;;;;;;;;;25.56;37.36;98544.63;5494642;26;20018;-83
2024/04/10 07:42:13;;;;;;;;;;;;;;;26.55;35.82;98546.03;5526844;26;19953;-83
2024/04/10 07:44:39;;;;;;;;;;;;;;;26.19;36.48;98553.72;5526840;26;19931;-83
2024/04/10 07:47:05;;;;;;;;;;;;;;;26.14;37.56;98548.59;5526888;26;19928;-83
2024/04/10 07:49:32;;;;;;;;;;;;;;;26.30;35.38;98548.63;5493025;26;19929;-83
2024/04/10 07:51:59;;;;;;;;;;;;;;;26.52;34.64;98565.81;5513453;26;20001;-84
2024/04/10 07:54:28;;;;;;;;;;;;;;;27.21;33.66;98573.69;5491521;26;19956;-84
2024/04/10 07:56:54;;;;;;;;;;;;;;;27.16;33.37;98576.28;5491049;26;20021;-83
2024/04/10 07:59:20;;;;;;;;;;;;;;;27.81;32.64;98583.34;5489655;26;19936;-84
2024/04/10 08:01:47;;;;;;;;;;;;;;;25.98;35.50;98577.47;5514801;26;19936;-83
2024/04/10 08:04:13;;;;;;;;;;;;;;;25.00;37.59;98585.81;5483833;26;20254;-83
2024/04/10 08:06:39;;;;;;;;;;;;;;;24.44;38.05;98601.53;5486726;26;19927;-83
2024/04/10 08:09:06;;;;;;;;;;;;;;;24.96;37.44;98595.53;5526274;26;19934;-83
2024/04/10 08:11:33;;;;;;;;;;;;;;;25.77;36.90;98599.63;5502885;26;19960;-82
2024/04/10 08:14:00;;;;;;;;;;;;;;;25.50;36.61;98615.84;5490056;26;20328;-83
2024/04/10 08:16:28;;;;;;;;;;;;;;;26.16;35.19;98624.97;5491852;26;19928;-83
2024/04/10 08:18:54;;;;;;;;;;;;;;;27.09;33.79;98618.75;5492709;26;19935;-83
2024/04/10 08:21:21;;;;;;;;;;;;;;;27.41;33.50;98635.66;5492964;26;19939;-83
2024/04/10 08:23:49;;;;;;;;;;;;;;;28.12;32.47;98645.78;5492752;26;20410;-83
2024/04/10 08:26:16;;;;;;;;;;;;;;;27.20;33.81;98639.00;5486117;26;19935;-83
2024/04/10 08:28:49;;;;;;;;;;;;;;;25.97;34.81;98653.88;5528735;26;19928;-83
2024/04/10 08:31:16;;;;;;;;;;;;;;;25.81;35.74;98660.22;5517230;26;19935;-83
2024/04/10 08:33:46;;;;;;;;;;;;;;;25.89;35.90;98672.13;5493091;26;19935;-83
2024/04/10 08:36:13;;;;;;;;;;;;;;;24.97;37.17;98679.38;5492749;26;20402;-83
2024/04/10 08:38:42;;;;;;;;;;;;;;;25.80;35.48;98681.16;5508104;26;20267;-83
2024/04/10 08:41:15;;;;;;;;;;;;;;;25.98;34.90;98684.41;5529829;26;19963;-83
2024/04/10 08:43:45;;;;;;;;;;;;;;;26.66;33.77;98681.75;5529312;26;19931;-83
2024/04/10 08:46:11;;;;;;;;;;;;;;;26.97;33.32;98699.19;5495871;26;19999;-83
2024/04/10 08:48:41;;;;;;;;;;;;;;;27.29;32.45;98709.66;5462069;26;19928;-83
2024/04/10 08:51:10;;;;;;;;;;;;;;;26.21;33.68;98716.56;5505806;26;19928;-82
2024/04/10 08:53:38;;;;;;;;;;;;;;;25.21;35.67;98740.00;5503754;26;19996;-83
2024/04/10 08:56:04;;;;;;;;;;;;;;;26.33;33.92;98730.75;5492704;26;19939;-83
2024/04/10 08:58:30;;;;;;;;;;;;;;;26.33;33.34;98729.97;5504679;26;19936;-83
2024/04/10 09:00:56;;;;;;;;;;;;;;;26.11;33.52;98748.53;5528751;26;19927;-83
2024/04/10 09:03:23;;;;;;;;;;;;;;;25.50;34.83;98745.19;5514591;26;19995;-82
2024/04/10 09:05:49;;;;;;;;;;;;;;;26.25;33.76;98745.41;5528000;26;19935;-83
2024/04/10 09:08:15;;;;;;;;;;;;;;;27.35;32.19;98753.03;5525437;26;20024;-83
2024/04/10 09:10:41;;;;;;;;;;;;;;;28.50;30.21;98751.16;5492540;26;19927;-83
2024/04/10 09:13:10;;;;;;;;;;;;;;;28.35;30.45;98754.84;5492316;26;19928;-83
2024/04/10 09:15:39;;;;;;;;;;;;;;;27.50;30.52;98759.13;5492814;26;19935;-83
2024/04/10 09:18:05;;;;;;;;;;;;;;;25.86;32.08;98760.19;5493317;26;20360;-83
2024/04/10 09:20:32;;;;;;;;;;;;;;;26.18;32.26;98770.91;5500010;26;19927;-83
2024/04/10 09:22:59;;;;;;;;;;;;;;;27.23;30.98;98757.34;5505398;26;19936;-83
2024/04/10 09:25:25;;;;;;;;;;;;;;;25.89;31.94;98764.97;5492350;26;19935;-83
2024/04/10 09:27:58;;;;;;;;;;;;;;;24.57;34.77;98778.66;5490274;26;19979;-83
2024/04/10 09:30:24;;;;;;;;;;;;;;;25.94;32.71;98768.09;5520495;26;19928;-82
2024/04/10 09:32:51;;;;;;;;;;;;;;;25.45;33.72;98779.41;5527194;26;19996;-83
2024/04/10 09:35:19;;;;;;;;;;;;;;;26.44;31.77;98787.63;5510643;26;19939;-82
2024/04/10 09:37:46;;;;;;;;;;;;;;;27.27;30.19;98785.44;5528555;26;19928;-82
2024/04/10 09:40:12;;;;;;;;;;;;;;;27.48;30.10;98796.25;5515947;26;19928;-83
2024/04/10 09:42:39;;;;;;;;;;;;;;;26.83;30.54;98794.53;5491505;26;19936;-83
2024/04/10 09:45:12;;;;;;;;;;;;;;;26.57;31.28;98807.50;5460041;26;19928;-83
2024/04/10 09:47:39;;;;;;;;;;;;;;;27.33;29.73;98803.41;5491873;26;20351;-82
2024/04/10 09:50:07;;;;;;;;;;;;;;;27.72;29.27;98813.81;5464027;26;20359;-82
2024/04/10 09:52:33;;;;;;;;;;;;;;;27.21;30.29;98815.41;5459770;26;19968;-82
2024/04/10 09:55:00;;;;;;;;;;;;;;;26.88;30.06;98813.75;5526269;26;20370;-83
2024/04/10 09:57:27;;;;;;;;;;;;;;;26.74;30.84;98815.63;5527794;26;19931;-82
2024/04/10 09:59:53;;;;;;;;;;;;;;;27.33;29.41;98812.69;5528234;26;20385;-82
2024/04/10 10:02:19;;;;;;;;;;;;;;;27.63;29.69;98822.09;5528239;26;19934;-82
2024/04/10 10:04:46;;;;;;;;;;;;;;;27.76;28.53;98815.28;5528466;26;19931;-82
2024/04/10 10:07:21;;;;;;;;;;;;;;;27.60;29.56;98815.31;5528269;26;19976;-82
2024/04/10 10:09:48;;;;;;;;;;;;;;;27.22;29.34;98816.97;5515917;26;19954;-82
2024/04/10 10:12:23;;;;;;;;;;;;;;;28.09;28.42;98824.56;5491177;26;19928;-82
2024/04/10 10:14:49;;;;;;;;;;;;;;;27.59;28.53;98822.16;5489365;26;20363;-82
2024/04/10 10:17:23;;;;;;;;;;;;;;;26.96;29.72;98818.78;5509064;26;20438;-82
2024/04/10 10:19:49;;;;;;;;;;;;;;;28.09;27.81;98827.38;5527912;26;19932;-83
2024/04/10 10:22:16;;;;;;;;;;;;;;;27.60;27.89;98826.59;5527217;26;19928;-82
2024/04/10 10:24:42;;;;;;;;;;;;;;;28.43;27.11;98827.66;5526853;26;19928;-82
2024/04/10 10:27:08;;;;;;;;;;;;;;;27.55;28.14;98827.09;5524595;26;19927;-82
2024/04/10 10:29:36;;;;;;;;;;;;;;;27.17;28.09;98842.88;5527963;26;19939;-82
2024/04/10 10:32:07;;;;;;;;;;;;;;;27.63;27.55;98841.84;5527775;26;19927;-82
2024/04/10 10:34:33;;;;;;;;;;;;;;;28.10;27.86;98845.13;5527740;26;19936;-82
2024/04/10 10:37:06;;;;;;;;;;;;;;;28.21;27.26;98845.63;5491183;26;19928;-82
2024/04/10 10:39:32;;;;;;;;;;;;;;;28.18;27.55;98850.13;5493092;26;20320;-82
2024/04/10 10:42:02;;;;;;;;;;;;;;;28.70;27.03;98853.56;5523632;26;19935;-82
2024/04/10 10:44:28;;;;;;;;;;;;;;;28.73;27.22;98857.50;5505699;26;20051;-83
2024/04/10 10:46:57;;;;;;;;;;;;;;;28.44;26.87;98860.31;5491048;26;19928;-82
2024/04/10 10:49:26;;;;;;;;;;;;;;;27.65;27.97;98868.38;5490628;25;19928;-82
2024/04/10 10:51:53;;;;;;;;;;;;;;;29.11;26.83;98871.75;5490638;26;19935;-82
2024/04/10 10:54:20;;;;;;;;;;;;;;;29.56;27.43;98872.41;5502320;26;19928;-82
2024/04/10 10:56:46;;;;;;;;;;;;;;;29.14;28.17;98874.47;5489924;26;20036;-82
2024/04/10 10:59:14;;;;;;;;;;;;;;;29.24;28.25;98878.25;5515751;26;19964;-82
2024/04/10 11:01:40;;;;;;;;;;;;;;;28.92;28.44;98873.50;5525766;26;19994;-82
2024/04/10 11:04:10;;;;;;;;;;;;;;;29.29;28.26;98883.38;5527515;26;20275;-82
2024/04/10 11:06:39;;;;;;;;;;;;;;;28.96;28.42;98890.38;5527656;26;20283;-82
2024/04/10 11:09:17;;;;;;;;;;;;;;;29.67;28.00;98898.31;5525563;26;19928;-82
2024/04/10 11:11:43;;;;;;;;;;;;;;;28.04;29.76;98902.13;5526940;26;19929;-82
2024/04/10 11:14:24;;;;;;;;;;;;;;;28.29;29.50;98901.47;5527653;26;19927;-82
2024/04/10 11:16:59;;;;;;;;;;;;;;;29.56;28.14;98903.53;5371825;26;19928;-82
2024/04/10 11:19:25;;;;;;;;;;;;;;;29.89;27.41;98901.28;5525801;26;19934;-82
2024/04/10 11:21:51;;;;;;;;;;;;;;;30.20;27.46;98909.97;5527046;26;19940;-82
2024/04/10 11:24:17;;;;;;;;;;;;;;;29.62;28.95;98903.75;5494121;26;19928;-82
2024/04/10 11:26:43;;;;;;;;;;;;;;;29.62;28.08;98904.53;5526912;26;20379;-82
2024/04/10 11:29:09;;;;;;;;;;;;;;;30.32;27.30;98914.81;5527000;26;20378;-82
2024/04/10 11:31:35;;;;;;;;;;;;;;;29.84;28.26;98907.53;5526922;26;20016;-82
2024/04/10 11:34:01;;;;;;;;;;;;;;;29.73;27.75;98907.84;5525596;26;19955;-82
2024/04/10 11:36:27;;;;;;;;;;;;;;;29.27;28.49;98912.09;5526814;26;19934;-82
2024/04/10 11:38:53;;;;;;;;;;;;;;;29.77;27.21;98908.53;5526797;26;19964;-82
2024/04/10 11:41:19;;;;;;;;;;;;;;;29.54;27.41;98916.53;5527260;26;19995;-82
2024/04/10 11:43:45;;;;;;;;;;;;;;;29.69;28.04;98920.50;5526118;26;19927;-82
2024/04/10 11:46:11;;;;;;;;;;;;;;;30.02;27.69;98917.03;5526941;26;19938;-82
2024/04/10 11:48:38;;;;;;;;;;;;;;;30.60;27.13;98914.66;5497803;26;19928;-82
2024/04/10 11:51:05;;;;;;;;;;;;;;;30.20;26.68;98918.47;5522553;26;20343;-82
2024/04/10 11:53:32;;;;;;;;;;;;;;;30.27;27.87;98929.56;5489216;26;19935;-82
2024/04/10 11:55:58;;;;;;;;;;;;;;;29.90;27.20;98917.81;5477345;26;20347;-82
2024/04/10 11:58:24;;;;;;;;;;;;;;;29.67;29.07;98925.81;5526079;26;20460;-83
2024/04/10 12:00:51;;;;;;;;;;;;;;;29.62;28.07;98917.88;5526656;26;19927;-82
2024/04/10 12:03:17;;;;;;;;;;;;;;;27.96;30.33;98913.97;5526457;26;19928;-82
2024/04/10 12:05:43;;;;;;;;;;;;;;;28.19;28.41;98918.69;5526196;26;19928;-82
2024/04/10 12:08:09;;;;;;;;;;;;;;;27.39;29.34;98923.00;5524986;26;19927;-82
2024/04/10 12:10:35;;;;;;;;;;;;;;;26.94;31.55;98921.91;5526575;26;19936;-82
2024/04/10 12:13:04;;;;;;;;;;;;;;;26.86;29.93;98929.72;5526462;26;19979;-82
2024/04/10 12:15:30;;;;;;;;;;;;;;;26.47;31.70;98919.16;5526259;26;19931;-82
2024/04/10 12:17:57;;;;;;;;;;;;;;;26.09;31.11;98929.06;5525948;26;19960;-83
2024/04/10 12:20:23;;;;;;;;;;;;;;;25.95;32.43;98926.47;5526245;26;19934;-82
2024/04/10 12:22:50;;;;;;;;;;;;;;;28.02;29.75;98915.88;5525827;26;19927;-82
2024/04/10 12:25:17;;;;;;;;;;;;;;;28.93;27.71;98928.03;5524610;26;19935;-82
2024/04/10 12:27:45;;;;;;;;;;;;;;;28.39;28.23;98922.19;5526140;26;19932;-82
2024/04/10 12:30:11;;;;;;;;;;;;;;;26.54;31.30;98930.28;5524936;26;20332;-82
2024/04/10 12:32:38;;;;;;;;;;;;;;;27.69;29.25;98922.69;5524085;26;19995;-81
2024/04/10 12:38:06;;;;;;;;;;;;;;;28.08;28.48;98932.31;5516442;26;19935;-82
2024/04/10 12:40:33;;;;;;;;;;;;;;;28.00;29.44;98940.94;5524084;26;19927;-82
2024/04/10 12:42:59;;;;;;;;;;;;;;;27.63;28.94;98923.66;5523829;26;19932;-82
2024/04/10 12:45:25;;;;;;;;;;;;;;;27.36;29.85;98943.56;5522208;26;19967;-82
2024/04/10 12:47:51;;;;;;;;;;;;;;;27.98;28.49;98932.06;5496002;26;19927;-82
2024/04/10 12:50:17;;;;;;;;;;;;;;;27.04;29.35;98941.44;5505388;26;19939;-82